Time;durP1;ratioP1;P1;durP2;ratioP2;P2;SDS_P1;SDS_P2;PMS_P1;PMS_P2;Temp;Humidity;BMP_temperature;BMP_pressure;BME280_temperature;BME280_humidity;BME280_pressure;Samples;Min_cycle;Max_cycle;Signal;HPM_P1;HPM_P2
2022/08/01 00:01:23;;;;;;;12.65;3.22;;;;;;;-148.14;100.00;65945.72;5053230;28;20101;-80
2022/08/01 00:03:48;;;;;;;5.13;3.00;;;;;;;-148.14;100.00;65945.72;5052374;28;20037;-81
2022/08/01 00:06:14;;;;;;;8.90;4.05;;;;;;;-148.14;100.00;65945.72;5021114;28;20499;-81
2022/08/01 00:08:40;;;;;;;6.88;2.80;;;;;;;-148.14;100.00;65945.72;5052582;28;20036;-81
2022/08/01 00:11:05;;;;;;;4.32;2.50;;;;;;;-148.14;100.00;65945.72;5051493;28;20036;-82
2022/08/01 00:13:31;;;;;;;9.43;3.15;;;;;;;-148.14;100.00;65945.72;5035041;28;20036;-81
2022/08/01 00:15:57;;;;;;;4.30;2.70;;;;;;;-148.14;100.00;65945.72;5027922;28;20029;-81
2022/08/01 00:18:23;;;;;;;8.73;3.13;;;;;;;-148.14;100.00;65945.72;5053326;28;20849;-80
2022/08/01 00:20:48;;;;;;;6.13;2.80;;;;;;;-148.14;100.00;65945.72;5030068;28;20029;-81
2022/08/01 00:23:14;;;;;;;9.75;3.05;;;;;;;-148.14;100.00;65945.72;5052777;28;20116;-81
2022/08/01 00:25:40;;;;;;;8.48;2.88;;;;;;;-148.14;100.00;65945.72;5052875;28;20031;-83
2022/08/01 00:28:09;;;;;;;7.82;3.25;;;;;;;-148.14;100.00;65945.72;5023111;28;20038;-81
2022/08/01 00:30:35;;;;;;;7.85;3.05;;;;;;;-148.14;100.00;65945.72;5052682;28;20045;-82
2022/08/01 00:33:01;;;;;;;12.63;2.90;;;;;;;-148.14;100.00;65945.72;5021338;28;20369;-82
2022/08/01 00:35:28;;;;;;;8.82;3.88;;;;;;;-148.14;100.00;65945.72;5027820;28;20033;-81
2022/08/01 00:37:53;;;;;;;7.05;3.22;;;;;;;-148.14;100.00;65945.72;5053113;28;20406;-82
2022/08/01 00:40:19;;;;;;;9.65;3.30;;;;;;;-148.14;100.00;65945.72;5010400;28;20035;-82
2022/08/01 00:42:44;;;;;;;9.65;3.13;;;;;;;-148.14;100.00;65945.72;5052469;28;20044;-82
2022/08/01 00:45:11;;;;;;;14.35;3.85;;;;;;;-148.14;100.00;65945.72;5041549;28;20125;-82
2022/08/01 00:47:37;;;;;;;8.07;3.30;;;;;;;-148.14;100.00;65945.72;5042404;28;20399;-82
2022/08/01 00:50:04;;;;;;;11.02;3.50;;;;;;;-148.14;100.00;65945.72;5034523;28;20040;-81
2022/08/01 00:52:31;;;;;;;10.32;3.40;;;;;;;-148.14;100.00;65945.72;5052280;28;20033;-81
2022/08/01 00:54:57;;;;;;;8.70;3.92;;;;;;;-148.14;100.00;65945.72;5052100;28;20025;-81
2022/08/01 00:57:22;;;;;;;5.45;3.30;;;;;;;-148.14;100.00;65945.72;5052356;28;20040;-80
2022/08/01 00:59:48;;;;;;;11.43;3.28;;;;;;;-148.14;100.00;65945.72;5052180;28;20028;-81
2022/08/01 01:02:14;;;;;;;9.95;3.58;;;;;;;-148.14;100.00;65945.72;5051758;28;20056;-81
2022/08/01 01:04:42;;;;;;;10.43;3.25;;;;;;;-148.14;100.00;65945.72;5023026;28;20037;-80
2022/08/01 01:07:29;;;;;;;9.40;3.33;;;;;;;-148.14;100.00;65945.72;5049240;28;20025;-81
2022/08/01 01:10:12;;;;;;;7.68;3.92;;;;;;;-148.14;100.00;65945.72;5051744;28;20472;-81
2022/08/01 01:12:59;;;;;;;11.18;3.47;;;;;;;-148.14;100.00;65945.72;5051074;28;20028;-80
2022/08/01 01:15:40;;;;;;;7.80;3.80;;;;;;;-148.14;100.00;65945.72;5052244;28;20119;-80
2022/08/01 01:18:14;;;;;;;7.75;3.42;;;;;;;-148.14;100.00;65945.72;5053991;28;20037;-80
2022/08/01 01:20:50;;;;;;;7.75;3.25;;;;;;;-148.14;100.00;65945.72;5056257;28;20032;-80
2022/08/01 01:23:16;;;;;;;9.15;3.80;;;;;;;-148.14;100.00;65945.72;5055833;28;20033;-80
2022/08/01 01:26:17;;;;;;;9.73;3.55;;;;;;;-148.14;100.00;65945.72;5054770;28;20033;-81
2022/08/01 01:29:14;;;;;;;12.07;4.05;;;;;;;-148.14;100.00;65945.72;5056103;28;20396;-80
2022/08/01 01:31:49;;;;;;;9.43;3.22;;;;;;;-148.14;100.00;65945.72;5055765;28;20560;-81
2022/08/01 01:34:17;;;;;;;9.25;3.20;;;;;;;-148.14;100.00;65945.72;5052034;28;20036;-81
2022/08/01 01:36:44;;;;;;;9.65;3.00;;;;;;;-148.14;100.00;65945.72;5038164;28;20059;-81
2022/08/01 01:39:11;;;;;;;5.95;3.30;;;;;;;-148.14;100.00;65945.72;5029885;28;20171;-79
2022/08/01 01:41:38;;;;;;;7.43;3.03;;;;;;;-148.14;100.00;65945.72;5055833;28;20039;-80
2022/08/01 01:44:06;;;;;;;6.85;3.35;;;;;;;-148.14;100.00;65945.72;5055605;28;20110;-81
2022/08/01 01:46:33;;;;;;;5.18;3.20;;;;;;;-148.14;100.00;65945.72;5055678;28;20047;-81
2022/08/01 01:49:01;;;;;;;11.50;3.50;;;;;;;-148.14;100.00;65945.72;5054500;28;20025;-81
2022/08/01 01:51:28;;;;;;;9.20;3.00;;;;;;;-148.14;100.00;65945.72;5036823;28;20040;-81
2022/08/01 01:53:55;;;;;;;15.05;3.70;;;;;;;-148.14;100.00;65945.72;5033238;28;20420;-81
2022/08/01 01:56:22;;;;;;;11.55;3.35;;;;;;;-148.14;100.00;65945.72;5035693;28;20035;-82
2022/08/01 01:58:52;;;;;;;8.90;3.42;;;;;;;-148.14;100.00;65945.72;5056341;28;20033;-81
2022/08/01 02:01:21;;;;;;;7.55;3.25;;;;;;;-148.14;100.00;65945.72;5055883;28;20025;-81
2022/08/01 02:03:49;;;;;;;11.90;3.42;;;;;;;-148.14;100.00;65945.72;5038015;28;20033;-81
2022/08/01 02:06:16;;;;;;;6.85;3.30;;;;;;;-148.14;100.00;65945.72;5055794;28;20041;-81
2022/08/01 02:08:43;;;;;;;7.65;3.20;;;;;;;-148.14;100.00;65945.72;5037939;28;20445;-80
2022/08/01 02:11:19;;;;;;;7.82;3.40;;;;;;;-148.14;100.00;65945.72;5055782;28;20032;-81
2022/08/01 02:14:08;;;;;;;9.15;3.20;;;;;;;-148.14;100.00;65945.72;5021215;28;20037;-80
2022/08/01 02:16:40;;;;;;;8.48;3.42;;;;;;;-148.14;100.00;65945.72;5034554;28;20037;-81
2022/08/01 02:19:06;;;;;;;8.88;3.60;;;;;;;-148.14;100.00;65945.72;5030661;28;20032;-81
2022/08/01 02:21:44;;;;;;;10.20;3.40;;;;;;;-148.14;100.00;65945.72;5055564;28;20021;-82
2022/08/01 02:24:24;;;;;;;7.10;3.55;;;;;;;-148.14;100.00;65945.72;5033455;28;20124;-81
2022/08/01 02:26:54;;;;;;;7.15;2.80;;;;;;;-148.14;100.00;65945.72;5026993;28;20040;-80
2022/08/01 02:29:27;;;;;;;6.85;3.53;;;;;;;-148.14;100.00;65945.72;5054780;28;20033;-81
2022/08/01 02:31:54;;;;;;;7.70;3.10;;;;;;;-148.14;100.00;65945.72;5029459;28;20050;-81
2022/08/01 02:34:22;;;;;;;10.07;3.15;;;;;;;-148.14;100.00;65945.72;5049569;28;20467;-80
2022/08/01 02:36:49;;;;;;;9.75;2.92;;;;;;;-148.14;100.00;65945.72;5036987;28;20041;-80
2022/08/01 02:39:17;;;;;;;11.70;3.53;;;;;;;-148.14;100.00;65945.72;5054311;28;20402;-80
2022/08/01 02:41:48;;;;;;;5.63;3.28;;;;;;;-148.14;100.00;65945.72;5054695;28;20478;-80
2022/08/01 02:44:23;;;;;;;8.45;3.30;;;;;;;-148.14;100.00;65945.72;5028393;28;20052;-80
2022/08/01 02:46:55;;;;;;;8.93;3.20;;;;;;;-148.14;100.00;65945.72;5026617;28;20387;-80
2022/08/01 02:49:22;;;;;;;11.02;3.50;;;;;;;-148.14;100.00;65945.72;5051327;28;20057;-80
2022/08/01 02:51:50;;;;;;;9.75;3.60;;;;;;;-148.14;100.00;65945.72;5054265;28;20474;-80
2022/08/01 02:54:18;;;;;;;8.93;3.20;;;;;;;-148.14;100.00;65945.72;5054140;28;20029;-81
2022/08/01 02:56:46;;;;;;;9.75;3.70;;;;;;;-148.14;100.00;65945.72;5054257;28;20025;-81
2022/08/01 02:59:14;;;;;;;8.73;3.50;;;;;;;-148.14;100.00;65945.72;5028046;28;20048;-80
2022/08/01 03:01:44;;;;;;;11.18;4.18;;;;;;;-148.14;100.00;65945.72;5054041;28;20028;-80
2022/08/01 03:04:11;;;;;;;12.02;3.80;;;;;;;-148.14;100.00;65945.72;5029327;28;20033;-80
2022/08/01 03:06:39;;;;;;;14.00;4.32;;;;;;;-148.14;100.00;65945.72;5027518;28;20038;-80
2022/08/01 03:09:06;;;;;;;12.77;3.72;;;;;;;-148.14;100.00;65945.72;5052549;28;20486;-80
2022/08/01 03:11:34;;;;;;;14.20;4.53;;;;;;;-148.14;100.00;65945.72;5019693;28;20050;-80
2022/08/01 03:14:02;;;;;;;11.52;3.17;;;;;;;-148.14;100.00;65945.72;5035968;28;20029;-80
2022/08/01 03:16:31;;;;;;;12.70;3.78;;;;;;;-148.14;100.00;65945.72;5049358;28;20478;-80
2022/08/01 03:19:01;;;;;;;10.15;3.38;;;;;;;-148.14;100.00;65945.72;5051239;28;20055;-80
2022/08/01 03:21:28;;;;;;;10.35;3.63;;;;;;;-148.14;100.00;65945.72;5053882;28;20024;-80
2022/08/01 03:23:56;;;;;;;10.82;3.63;;;;;;;-148.14;100.00;65945.72;5053641;28;20040;-81
2022/08/01 03:26:27;;;;;;;6.45;3.40;;;;;;;-148.14;100.00;65945.72;5036135;28;20025;-80
2022/08/01 03:28:57;;;;;;;8.00;3.60;;;;;;;-148.14;100.00;65945.72;5051412;28;20116;-79
2022/08/01 03:31:25;;;;;;;12.13;3.83;;;;;;;-148.14;100.00;65945.72;5027254;28;20041;-79
2022/08/01 03:33:50;;;;;;;11.25;3.63;;;;;;;-148.14;100.00;65945.72;5030346;28;20029;-80
2022/08/01 03:36:20;;;;;;;9.50;3.67;;;;;;;-148.14;100.00;65945.72;5029970;28;20025;-80
2022/08/01 03:38:49;;;;;;;10.80;4.15;;;;;;;-148.14;100.00;65945.72;5053057;28;20029;-79
2022/08/01 03:41:20;;;;;;;15.32;4.03;;;;;;;-148.14;100.00;65945.72;5053383;28;20028;-81
2022/08/01 03:43:57;;;;;;;17.40;4.10;;;;;;;-148.14;100.00;65945.72;5053364;28;20036;-80
2022/08/01 03:46:30;;;;;;;9.60;3.83;;;;;;;-148.14;100.00;65945.72;5049044;28;20056;-81
2022/08/01 03:49:00;;;;;;;8.63;3.58;;;;;;;-148.14;100.00;65945.72;5053503;28;20067;-80
2022/08/01 03:51:27;;;;;;;10.40;4.50;;;;;;;-148.14;100.00;65945.72;5053326;28;20455;-80
2022/08/01 03:53:55;;;;;;;7.68;3.70;;;;;;;-148.14;100.00;65945.72;5031180;28;20079;-80
2022/08/01 03:56:23;;;;;;;8.93;3.80;;;;;;;-148.14;100.00;65945.72;5053461;28;20080;-79
2022/08/01 03:58:50;;;;;;;13.95;5.22;;;;;;;-148.14;100.00;65945.72;5035387;28;20052;-79
2022/08/01 04:01:17;;;;;;;9.57;4.60;;;;;;;-148.14;100.00;65945.72;5053221;28;20032;-79
2022/08/01 04:03:43;;;;;;;12.70;4.53;;;;;;;-148.14;100.00;65945.72;5053513;28;20086;-79
2022/08/01 04:06:10;;;;;;;9.40;4.45;;;;;;;-148.14;100.00;65945.72;5028114;28;20071;-80
2022/08/01 04:08:40;;;;;;;12.90;4.50;;;;;;;-148.14;100.00;65945.72;5035744;28;20391;-81
2022/08/01 04:11:07;;;;;;;7.88;3.92;;;;;;;-148.14;100.00;65945.72;5053270;28;20067;-80
2022/08/01 04:13:33;;;;;;;15.05;4.60;;;;;;;-148.14;100.00;65945.72;5053232;28;20056;-80
2022/08/01 04:15:59;;;;;;;8.82;3.75;;;;;;;-148.14;100.00;65945.72;5053235;28;20029;-80
2022/08/01 04:18:25;;;;;;;9.95;4.57;;;;;;;-148.14;100.00;65945.72;5052654;28;20029;-80
2022/08/01 04:20:50;;;;;;;10.65;5.78;;;;;;;-148.14;100.00;65945.72;5034890;28;20039;-80
2022/08/01 04:23:19;;;;;;;9.25;4.38;;;;;;;-148.14;100.00;65945.72;5052443;28;20467;-79
2022/08/01 04:25:47;;;;;;;12.68;4.95;;;;;;;-148.14;100.00;65945.72;5052647;28;20033;-79
2022/08/01 04:28:17;;;;;;;15.00;4.40;;;;;;;-148.14;100.00;65945.72;5051466;28;20075;-79
2022/08/01 04:30:45;;;;;;;12.20;5.22;;;;;;;-148.14;100.00;65945.72;5049517;28;20031;-79
2022/08/01 04:33:15;;;;;;;14.82;4.82;;;;;;;-148.14;100.00;65945.72;5052400;28;20112;-79
2022/08/01 04:35:45;;;;;;;9.05;4.65;;;;;;;-148.14;100.00;65945.72;5052318;28;20032;-79
2022/08/01 04:38:16;;;;;;;16.48;4.85;;;;;;;-148.14;100.00;65945.72;5051231;28;20032;-79
2022/08/01 04:40:45;;;;;;;14.70;4.93;;;;;;;-148.14;100.00;65945.72;5052416;28;20029;-79
2022/08/01 04:43:11;;;;;;;15.57;5.32;;;;;;;-148.14;100.00;65945.72;5027862;28;20087;-79
2022/08/01 04:45:37;;;;;;;11.82;5.32;;;;;;;-148.14;100.00;65945.72;5017843;28;20498;-80
2022/08/01 04:48:06;;;;;;;10.95;4.78;;;;;;;-148.14;100.00;65945.72;5050749;28;20356;-80
2022/08/01 04:50:32;;;;;;;18.45;4.50;;;;;;;-148.14;100.00;65945.72;5051667;28;20072;-80
2022/08/01 04:52:58;;;;;;;11.85;4.75;;;;;;;-148.14;100.00;65945.72;5017872;28;20071;-80
2022/08/01 04:55:24;;;;;;;10.15;4.25;;;;;;;-148.14;100.00;65945.72;5024447;28;20029;-80
2022/08/01 04:57:50;;;;;;;12.02;4.15;;;;;;;-148.14;100.00;65945.72;5041566;28;20537;-81
2022/08/01 05:00:18;;;;;;;12.18;4.55;;;;;;;-148.14;100.00;65945.72;5034448;28;20021;-80
2022/08/01 05:02:44;;;;;;;14.80;4.20;;;;;;;-148.14;100.00;65945.72;5051381;28;20447;-80
2022/08/01 05:05:10;;;;;;;15.60;4.30;;;;;;;-148.14;100.00;65945.72;5023465;28;20112;-80
2022/08/01 05:07:36;;;;;;;10.52;4.15;;;;;;;-148.14;100.00;65945.72;5024683;28;20041;-81
2022/08/01 05:10:04;;;;;;;10.40;4.40;;;;;;;-148.14;100.00;65945.72;5031970;28;20037;-80
2022/08/01 05:12:31;;;;;;;10.27;4.40;;;;;;;-148.14;100.00;65945.72;5034074;28;20025;-80
2022/08/01 05:14:59;;;;;;;11.35;3.97;;;;;;;-148.14;100.00;65945.72;5022102;28;20136;-79
2022/08/01 05:17:26;;;;;;;10.85;4.40;;;;;;;-148.14;100.00;65945.72;5052351;28;20108;-81
2022/08/01 05:19:52;;;;;;;14.82;4.55;;;;;;;-148.14;100.00;65945.72;5047475;28;20437;-80
2022/08/01 05:22:20;;;;;;;13.00;4.50;;;;;;;-148.14;100.00;65945.72;5049628;28;20037;-81
2022/08/01 05:24:46;;;;;;;19.80;4.22;;;;;;;-148.14;100.00;65945.72;5017981;28;20033;-80
2022/08/01 05:27:13;;;;;;;12.82;4.30;;;;;;;-148.14;100.00;65945.72;5022084;28;20127;-80
2022/08/01 05:29:38;;;;;;;15.65;4.15;;;;;;;-148.14;100.00;65945.72;5023888;28;20026;-81
2022/08/01 05:32:05;;;;;;;12.32;3.53;;;;;;;-148.14;100.00;65945.72;5040573;28;20576;-80
2022/08/01 05:34:31;;;;;;;13.85;3.78;;;;;;;-148.14;100.00;65945.72;5052231;28;20117;-80
2022/08/01 05:36:56;;;;;;;9.55;3.85;;;;;;;-148.14;100.00;65945.72;5052331;28;20119;-80
2022/08/01 05:39:22;;;;;;;7.25;3.40;;;;;;;-148.14;100.00;65945.72;5052159;28;20044;-81
2022/08/01 05:41:47;;;;;;;12.35;3.53;;;;;;;-148.14;100.00;65945.72;5051136;28;20052;-80
2022/08/01 05:44:13;;;;;;;14.88;3.58;;;;;;;-148.14;100.00;65945.72;5025610;28;20183;-80
2022/08/01 05:46:39;;;;;;;11.85;3.10;;;;;;;-148.14;100.00;65945.72;5052130;28;20387;-80
2022/08/01 05:49:04;;;;;;;7.45;3.20;;;;;;;-148.14;100.00;65945.72;5052119;28;20037;-80
2022/08/01 05:51:30;;;;;;;8.65;3.55;;;;;;;-148.14;100.00;65945.72;5051817;28;20029;-80
2022/08/01 05:53:57;;;;;;;8.93;3.40;;;;;;;-148.14;100.00;65945.72;5051994;28;20411;-81
2022/08/01 05:56:23;;;;;;;11.30;3.13;;;;;;;-148.14;100.00;65945.72;5031114;28;20028;-80
2022/08/01 05:58:50;;;;;;;7.57;2.90;;;;;;;-148.14;100.00;65945.72;5051955;28;20278;-80
2022/08/01 06:01:17;;;;;;;14.10;3.30;;;;;;;-148.14;100.00;65945.72;5035169;28;20053;-80
2022/08/01 06:03:42;;;;;;;6.63;2.90;;;;;;;-148.14;100.00;65945.72;5056473;28;20113;-80
2022/08/01 06:06:08;;;;;;;9.35;3.28;;;;;;;-148.14;100.00;65945.72;5054283;28;20060;-80
2022/08/01 06:08:33;;;;;;;11.88;3.38;;;;;;;-148.14;100.00;65945.72;5029220;28;20080;-81
2022/08/01 06:10:59;;;;;;;12.45;2.80;;;;;;;-148.14;100.00;65945.72;5056269;28;20037;-81
2022/08/01 06:13:25;;;;;;;8.57;2.97;;;;;;;-148.14;100.00;65945.72;5051756;28;20116;-80
2022/08/01 06:15:51;;;;;;;8.90;3.15;;;;;;;-148.14;100.00;65945.72;5055329;28;20415;-81
2022/08/01 06:18:17;;;;;;;11.25;3.10;;;;;;;-148.14;100.00;65945.72;5056077;28;20222;-81
2022/08/01 06:20:44;;;;;;;11.00;3.03;;;;;;;-148.14;100.00;65945.72;5029569;28;20056;-81
2022/08/01 06:23:09;;;;;;;8.35;2.90;;;;;;;-148.14;100.00;65945.72;5048192;28;20040;-81
2022/08/01 06:25:35;;;;;;;8.07;2.80;;;;;;;-148.14;100.00;65945.72;5055981;28;20383;-81
2022/08/01 06:28:02;;;;;;;16.35;3.00;;;;;;;-148.14;100.00;65945.72;5034146;28;20029;-82
2022/08/01 06:30:28;;;;;;;8.32;2.90;;;;;;;-148.14;100.00;65945.72;5021255;28;20036;-83
2022/08/01 06:32:55;;;;;;;10.55;2.90;;;;;;;-148.14;100.00;65945.72;5055417;28;20407;-80
2022/08/01 06:35:21;;;;;;;9.30;3.35;;;;;;;-148.14;100.00;65945.72;5053104;28;20042;-80
2022/08/01 06:37:48;;;;;;;9.80;3.08;;;;;;;-148.14;100.00;65945.72;5052094;28;20025;-78
2022/08/01 06:40:14;;;;;;;7.78;3.20;;;;;;;-148.14;100.00;65945.72;5053466;28;20033;-78
2022/08/01 06:42:40;;;;;;;11.27;3.15;;;;;;;-148.14;100.00;65945.72;5053876;28;20449;-78
2022/08/01 06:45:10;;;;;;;13.55;2.85;;;;;;;-148.14;100.00;65945.72;5052133;28;20067;-78
2022/08/01 06:47:38;;;;;;;11.50;3.60;;;;;;;-148.14;100.00;65945.72;5053172;28;20125;-79
2022/08/01 06:50:06;;;;;;;6.00;2.55;;;;;;;-148.14;100.00;65945.72;5053499;28;20593;-78
2022/08/01 06:52:35;;;;;;;12.93;2.65;;;;;;;-148.14;100.00;65945.72;5053666;28;20036;-80
2022/08/01 06:55:01;;;;;;;9.80;3.15;;;;;;;-148.14;100.00;65945.72;5053976;28;20033;-81
2022/08/01 06:57:28;;;;;;;12.18;3.50;;;;;;;-148.14;100.00;65945.72;5033826;28;20074;-81
2022/08/01 06:59:54;;;;;;;11.10;2.67;;;;;;;-148.14;100.00;65945.72;5035570;28;20032;-80
2022/08/01 07:02:19;;;;;;;7.30;2.85;;;;;;;-148.14;100.00;65945.72;5034714;28;20033;-80
2022/08/01 07:04:45;;;;;;;9.90;3.60;;;;;;;-148.14;100.00;65945.72;5053785;28;20029;-80
2022/08/01 07:07:11;;;;;;;9.50;2.95;;;;;;;-148.14;100.00;65945.72;5053736;28;20029;-80
2022/08/01 07:09:37;;;;;;;7.45;3.20;;;;;;;-148.14;100.00;65945.72;5029016;28;20269;-82
2022/08/01 07:12:04;;;;;;;11.45;3.05;;;;;;;-148.14;100.00;65945.72;5054169;28;20079;-81
2022/08/01 07:14:29;;;;;;;6.50;2.85;;;;;;;-148.14;100.00;65945.72;5053171;28;20036;-82
2022/08/01 07:16:55;;;;;;;7.90;2.65;;;;;;;-148.14;100.00;65945.72;5031637;28;20410;-81
2022/08/01 07:19:21;;;;;;;7.38;2.60;;;;;;;-148.14;100.00;65945.72;5051986;28;20025;-80
2022/08/01 07:21:46;;;;;;;9.60;2.97;;;;;;;-148.14;100.00;65945.72;5024446;28;20083;-80
2022/08/01 07:24:13;;;;;;;7.45;2.75;;;;;;;-148.14;100.00;65945.72;5053470;28;20116;-80
2022/08/01 07:26:41;;;;;;;7.78;3.30;;;;;;;-148.14;100.00;65945.72;5053525;28;20116;-81
2022/08/01 07:29:07;;;;;;;10.77;2.88;;;;;;;-148.14;100.00;65945.72;5033384;28;20049;-81
2022/08/01 07:31:32;;;;;;;8.05;2.53;;;;;;;-148.14;100.00;65945.72;5027165;28;20640;-81
2022/08/01 07:33:58;;;;;;;6.30;2.70;;;;;;;-148.14;100.00;65945.72;5051687;28;20421;-81
2022/08/01 07:36:24;;;;;;;9.88;2.47;;;;;;;-148.14;100.00;65945.72;5052675;28;20033;-80
2022/08/01 07:38:49;;;;;;;5.72;2.65;;;;;;;-148.14;100.00;65945.72;5052557;28;20041;-81
2022/08/01 07:41:15;;;;;;;8.68;2.85;;;;;;;-148.14;100.00;65945.72;5018354;28;20029;-81
2022/08/01 07:43:40;;;;;;;8.07;2.60;;;;;;;-148.14;100.00;65945.72;5025940;28;20064;-81
2022/08/01 07:46:06;;;;;;;7.28;2.97;;;;;;;-148.14;100.00;65945.72;5050126;28;20074;-81
2022/08/01 07:48:32;;;;;;;8.30;2.72;;;;;;;-148.14;100.00;65945.72;5050651;28;20048;-81
2022/08/01 07:50:58;;;;;;;6.53;2.38;;;;;;;-148.14;100.00;65945.72;5052345;28;20040;-81
2022/08/01 07:53:24;;;;;;;5.40;2.60;;;;;;;-148.14;100.00;65945.72;5052015;28;20108;-80
2022/08/01 07:55:50;;;;;;;7.00;2.40;;;;;;;-148.14;100.00;65945.72;5034288;28;20123;-81
2022/08/01 07:58:16;;;;;;;6.35;2.38;;;;;;;-148.14;100.00;65945.72;5026076;28;20034;-81
2022/08/01 08:00:42;;;;;;;9.70;2.38;;;;;;;-148.14;100.00;65945.72;5012490;28;20032;-80
2022/08/01 08:03:07;;;;;;;6.10;2.13;;;;;;;-148.14;100.00;65945.72;5046950;28;20056;-80
2022/08/01 08:05:34;;;;;;;11.98;2.85;;;;;;;-148.14;100.00;65945.72;5051649;28;20036;-80
2022/08/01 08:08:07;;;;;;;5.22;2.30;;;;;;;-148.14;100.00;65945.72;5050652;28;20116;-82
2022/08/01 08:10:32;;;;;;;6.03;2.42;;;;;;;-148.14;100.00;65945.72;5050921;28;20040;-81
2022/08/01 08:12:59;;;;;;;5.90;3.38;;;;;;;-148.14;100.00;65945.72;5046809;28;20107;-83
2022/08/01 08:15:24;;;;;;;5.60;2.67;;;;;;;-148.14;100.00;65945.72;5029074;28;20438;-80
2022/08/01 08:17:50;;;;;;;4.25;2.50;;;;;;;-148.14;100.00;65945.72;5034137;28;20032;-81
2022/08/01 08:20:16;;;;;;;8.02;2.45;;;;;;;-148.14;100.00;65945.72;5051857;28;20028;-81
2022/08/01 08:22:41;;;;;;;5.18;2.20;;;;;;;-148.14;100.00;65945.72;5050598;28;20033;-82
2022/08/01 08:25:08;;;;;;;4.15;2.15;;;;;;;-148.14;100.00;65945.72;5048457;28;20039;-81
2022/08/01 08:27:35;;;;;;;5.05;2.40;;;;;;;-148.14;100.00;65945.72;5048640;28;20044;-81
2022/08/01 08:30:02;;;;;;;5.15;3.38;;;;;;;-148.14;100.00;65945.72;5029224;28;20040;-81
2022/08/01 08:32:28;;;;;;;4.28;2.33;;;;;;;-148.14;100.00;65945.72;5050354;28;20060;-82
2022/08/01 08:34:54;;;;;;;5.30;2.08;;;;;;;-148.14;100.00;65945.72;5049280;28;20029;-81
2022/08/01 08:37:19;;;;;;;3.78;2.15;;;;;;;-148.14;100.00;65945.72;5049256;28;20609;-81
2022/08/01 08:39:45;;;;;;;7.55;2.97;;;;;;;-148.14;100.00;65945.72;5025070;28;20037;-81
2022/08/01 08:42:11;;;;;;;6.43;2.40;;;;;;;-148.14;100.00;65945.72;5049255;28;20120;-80
2022/08/01 08:44:38;;;;;;;4.40;2.17;;;;;;;-148.14;100.00;65945.72;5050826;28;20044;-81
2022/08/01 08:47:05;;;;;;;5.03;2.17;;;;;;;-148.14;100.00;65945.72;5032435;28;20025;-82
2022/08/01 08:49:32;;;;;;;4.28;2.20;;;;;;;-148.14;100.00;65945.72;5048501;28;20037;-81
2022/08/01 08:51:59;;;;;;;4.72;2.33;;;;;;;-148.14;100.00;65945.72;5025099;28;20060;-82
2022/08/01 08:54:25;;;;;;;3.38;2.10;;;;;;;-148.14;100.00;65945.72;5051182;28;20466;-81
2022/08/01 08:56:52;;;;;;;5.45;2.20;;;;;;;-148.14;100.00;65945.72;5025156;28;20040;-82
2022/08/01 08:59:18;;;;;;;6.18;2.42;;;;;;;-148.14;100.00;65945.72;5051070;28;20043;-83
2022/08/01 09:01:45;;;;;;;5.28;2.15;;;;;;;-148.14;100.00;65945.72;5050603;28;20115;-81
2022/08/01 09:04:11;;;;;;;6.47;2.28;;;;;;;-148.14;100.00;65945.72;5025705;28;20029;-82
2022/08/01 09:06:37;;;;;;;4.78;2.30;;;;;;;-148.14;100.00;65945.72;5050958;28;20447;-82
2022/08/01 09:09:03;;;;;;;5.43;2.65;;;;;;;-148.14;100.00;65945.72;5050596;28;20115;-81
2022/08/01 09:11:29;;;;;;;4.25;2.20;;;;;;;-148.14;100.00;65945.72;5050772;28;20025;-81
2022/08/01 09:14:07;;;;;;;5.32;2.17;;;;;;;-148.14;100.00;65945.72;5011066;28;20402;-81
2022/08/01 09:16:34;;;;;;;5.53;2.47;;;;;;;-148.14;100.00;65945.72;5049691;28;20463;-81
2022/08/01 09:19:11;;;;;;;5.18;2.65;;;;;;;-148.14;100.00;65945.72;5049948;28;20029;-81
2022/08/01 09:21:38;;;;;;;7.07;2.42;;;;;;;-148.14;100.00;65945.72;5032307;28;20025;-81
2022/08/01 09:24:12;;;;;;;6.10;2.33;;;;;;;-148.14;100.00;65945.72;5050399;28;20055;-81
2022/08/01 09:26:38;;;;;;;3.38;2.28;;;;;;;-148.14;100.00;65945.72;5050826;28;20061;-82
2022/08/01 09:29:06;;;;;;;2.92;2.30;;;;;;;-148.14;100.00;65945.72;5024832;28;20499;-81
2022/08/01 09:31:43;;;;;;;2.92;2.63;;;;;;;-148.14;100.00;65945.72;5049928;28;20049;-81
2022/08/01 09:34:09;;;;;;;3.70;2.20;;;;;;;-148.14;100.00;65945.72;5049354;28;20031;-82
2022/08/01 09:36:55;;;;;;;2.63;2.20;;;;;;;-148.14;100.00;65945.72;5031930;28;20043;-82
2022/08/01 09:39:24;;;;;;;5.03;2.63;;;;;;;-148.14;100.00;65945.72;5056616;28;20039;-83
2022/08/01 09:41:50;;;;;;;6.88;2.90;;;;;;;-148.14;100.00;65945.72;5056108;28;20048;-80
2022/08/01 09:44:18;;;;;;;3.65;2.50;;;;;;;-148.14;100.00;65945.72;5036503;28;20025;-81
2022/08/01 09:46:54;;;;;;;4.45;2.25;;;;;;;-148.14;100.00;65945.72;5053802;28;20036;-80
2022/08/01 09:49:32;;;;;;;3.83;2.30;;;;;;;-148.14;100.00;65945.72;5053677;28;20039;-83
2022/08/01 09:51:59;;;;;;;6.82;2.63;;;;;;;-148.14;100.00;65945.72;5052853;28;20024;-81
2022/08/01 09:54:31;;;;;;;5.88;2.40;;;;;;;-148.14;100.00;65945.72;5013288;28;20430;-80
2022/08/01 09:57:14;;;;;;;6.07;2.95;;;;;;;-148.14;100.00;65945.72;5052634;28;20086;-80
2022/08/01 09:59:43;;;;;;;4.40;2.60;;;;;;;-148.14;100.00;65945.72;5026733;28;20033;-83
2022/08/01 10:02:15;;;;;;;6.80;2.95;;;;;;;-148.14;100.00;65945.72;5018245;28;20037;-81
2022/08/01 10:04:51;;;;;;;4.85;2.85;;;;;;;-148.14;100.00;65945.72;5053666;28;20037;-81
2022/08/01 10:07:18;;;;;;;4.68;2.75;;;;;;;-148.14;100.00;65945.72;5054232;28;20032;-82
2022/08/01 10:09:45;;;;;;;3.95;2.75;;;;;;;-148.14;100.00;65945.72;5052982;28;20029;-80
2022/08/01 10:12:13;;;;;;;5.90;3.15;;;;;;;-148.14;100.00;65945.72;5053988;28;20124;-82
2022/08/01 10:14:40;;;;;;;6.03;2.70;;;;;;;-148.14;100.00;65945.72;5027138;28;20041;-81
2022/08/01 10:17:09;;;;;;;5.38;2.65;;;;;;;-148.14;100.00;65945.72;5031208;28;20472;-81
2022/08/01 10:19:37;;;;;;;5.53;2.75;;;;;;;-148.14;100.00;65945.72;5021575;28;20032;-81
2022/08/01 10:22:07;;;;;;;3.92;2.50;;;;;;;-148.14;100.00;65945.72;5053510;28;20032;-81
2022/08/01 10:24:39;;;;;;;11.43;2.65;;;;;;;-148.14;100.00;65945.72;5010777;28;20039;-81
2022/08/01 10:27:07;;;;;;;4.75;2.60;;;;;;;-148.14;100.00;65945.72;5011328;28;20033;-80
2022/08/01 10:29:56;;;;;;;6.18;2.70;;;;;;;-148.14;100.00;65945.72;5036034;28;20029;-80
2022/08/01 10:32:22;;;;;;;3.90;2.45;;;;;;;-148.14;100.00;65945.72;5013239;28;20053;-81
2022/08/01 10:34:52;;;;;;;4.70;2.63;;;;;;;-148.14;100.00;65945.72;5036015;28;20036;-80
2022/08/01 10:37:20;;;;;;;3.90;2.80;;;;;;;-148.14;100.00;65945.72;5031961;28;20090;-80
2022/08/01 10:39:45;;;;;;;6.72;3.10;;;;;;;-148.14;100.00;65945.72;5026327;28;20387;-79
2022/08/01 10:42:12;;;;;;;4.50;3.00;;;;;;;-148.14;100.00;65945.72;5033663;28;20074;-81
2022/08/01 10:44:39;;;;;;;4.05;2.88;;;;;;;-148.14;100.00;65945.72;5031600;28;20029;-81
2022/08/01 10:47:11;;;;;;;3.15;2.80;;;;;;;-148.14;100.00;65945.72;5032031;28;20039;-79
2022/08/01 10:50:06;;;;;;;9.55;2.95;;;;;;;-148.14;100.00;65945.72;5035220;28;20547;-80
2022/08/01 10:52:32;;;;;;;9.63;3.35;;;;;;;-148.14;100.00;65945.72;5021288;28;20044;-80
2022/08/01 10:55:03;;;;;;;6.35;3.78;;;;;;;-148.14;100.00;65945.72;5027558;28;20028;-80
2022/08/01 10:57:47;;;;;;;4.57;3.08;;;;;;;-148.14;100.00;65945.72;5053391;28;20056;-80
2022/08/01 11:00:22;;;;;;;6.00;3.13;;;;;;;-148.14;100.00;65945.72;5053531;28;20386;-80
2022/08/01 11:03:03;;;;;;;3.90;3.03;;;;;;;-148.14;100.00;65945.72;5030036;28;20048;-79
2022/08/01 11:05:36;;;;;;;4.45;3.10;;;;;;;-148.14;100.00;65945.72;5035114;28;20060;-79
2022/08/01 11:08:10;;;;;;;4.18;2.95;;;;;;;-148.14;100.00;65945.72;5035050;28;20128;-80
2022/08/01 11:10:36;;;;;;;10.88;3.40;;;;;;;-148.14;100.00;65945.72;5052771;28;20044;-80
2022/08/01 11:13:03;;;;;;;4.70;2.80;;;;;;;-148.14;100.00;65945.72;5053206;28;20025;-80